sensor_id;sensor_type;location;lat;lon;timestamp;pressure;altitude;pressure_sealevel;temperature;humidity
6833;BME280;3454;42.654;23.378;2022-09-02T00:00:46;94170.59;;;20.00;100.00
6833;BME280;3454;42.654;23.378;2022-09-02T00:03:12;94178.34;;;20.13;100.00
6833;BME280;3454;42.654;23.378;2022-09-02T00:05:38;94178.72;;;20.17;100.00
6833;BME280;3454;42.654;23.378;2022-09-02T00:08:04;94177.34;;;20.14;100.00
6833;BME280;3454;42.654;23.378;2022-09-02T00:10:32;94172.97;;;19.88;100.00
6833;BME280;3454;42.654;23.378;2022-09-02T00:12:58;94175.34;;;19.90;100.00
6833;BME280;3454;42.654;23.378;2022-09-02T00:15:24;94175.97;;;19.85;100.00
6833;BME280;3454;42.654;23.378;2022-09-02T00:17:50;94169.81;;;19.99;100.00
6833;BME280;3454;42.654;23.378;2022-09-02T00:20:16;94177.34;;;20.07;100.00
6833;BME280;3454;42.654;23.378;2022-09-02T00:22:42;94180.94;;;20.26;100.00
6833;BME280;3454;42.654;23.378;2022-09-02T00:25:08;94178.34;;;20.13;100.00
6833;BME280;3454;42.654;23.378;2022-09-02T00:27:34;94172.00;;;20.09;100.00
6833;BME280;3454;42.654;23.378;2022-09-02T00:30:00;94183.72;;;20.12;100.00
6833;BME280;3454;42.654;23.378;2022-09-02T00:32:25;94187.69;;;20.21;100.00
6833;BME280;3454;42.654;23.378;2022-09-02T00:34:51;94188.69;;;20.20;100.00
6833;BME280;3454;42.654;23.378;2022-09-02T00:37:16;94193.88;;;20.20;100.00
6833;BME280;3454;42.654;23.378;2022-09-02T00:39:42;94200.41;;;20.35;100.00
6833;BME280;3454;42.654;23.378;2022-09-02T00:42:08;94194.63;;;20.40;100.00
6833;BME280;3454;42.654;23.378;2022-09-02T00:44:34;94199.19;;;20.44;100.00
6833;BME280;3454;42.654;23.378;2022-09-02T00:46:59;94201.97;;;20.43;100.00
6833;BME280;3454;42.654;23.378;2022-09-02T00:49:29;94199.97;;;20.45;100.00
6833;BME280;3454;42.654;23.378;2022-09-02T00:52:06;94201.78;;;20.38;100.00
6833;BME280;3454;42.654;23.378;2022-09-02T00:54:38;94198.19;;;20.32;100.00
6833;BME280;3454;42.654;23.378;2022-09-02T00:57:10;94196.03;;;20.36;100.00
6833;BME280;3454;42.654;23.378;2022-09-02T00:59:49;94190.66;;;20.44;100.00
6833;BME280;3454;42.654;23.378;2022-09-02T01:02:16;94192.06;;;20.40;100.00
6833;BME280;3454;42.654;23.378;2022-09-02T01:04:43;94190.06;;;20.35;100.00
6833;BME280;3454;42.654;23.378;2022-09-02T01:07:11;94200.41;;;20.42;100.00
6833;BME280;3454;42.654;23.378;2022-09-02T01:09:42;94194.03;;;20.38;100.00
6833;BME280;3454;42.654;23.378;2022-09-02T01:12:08;94193.41;;;20.42;100.00
6833;BME280;3454;42.654;23.378;2022-09-02T01:14:36;94196.22;;;20.47;100.00
6833;BME280;3454;42.654;23.378;2022-09-02T01:17:02;94188.84;;;20.44;100.00
6833;BME280;3454;42.654;23.378;2022-09-02T01:19:43;94189.88;;;20.37;100.00
6833;BME280;3454;42.654;23.378;2022-09-02T01:22:21;94197.22;;;20.14;100.00
6833;BME280;3454;42.654;23.378;2022-09-02T01:24:47;94203.56;;;20.11;100.00
6833;BME280;3454;42.654;23.378;2022-09-02T01:27:15;94194.22;;;20.03;100.00
6833;BME280;3454;42.654;23.378;2022-09-02T01:29:41;94194.63;;;20.00;100.00
6833;BME280;3454;42.654;23.378;2022-09-02T01:32:07;94194.03;;;19.85;100.00
6833;BME280;3454;42.654;23.378;2022-09-02T01:34:32;94195.81;;;19.85;100.00
6833;BME280;3454;42.654;23.378;2022-09-02T01:36:58;94190.03;;;19.76;100.00
6833;BME280;3454;42.654;23.378;2022-09-02T01:39:23;94196.78;;;19.84;100.00
6833;BME280;3454;42.654;23.378;2022-09-02T01:41:49;94184.88;;;19.76;100.00
6833;BME280;3454;42.654;23.378;2022-09-02T01:44:15;94192.03;;;19.87;100.00
6833;BME280;3454;42.654;23.378;2022-09-02T01:46:42;94184.09;;;19.89;100.00
6833;BME280;3454;42.654;23.378;2022-09-02T01:49:08;94174.56;;;20.02;100.00
6833;BME280;3454;42.654;23.378;2022-09-02T01:51:34;94169.78;;;20.06;100.00
6833;BME280;3454;42.654;23.378;2022-09-02T01:54:00;94166.63;;;20.04;100.00
6833;BME280;3454;42.654;23.378;2022-09-02T01:56:26;94157.91;;;20.12;100.00
6833;BME280;3454;42.654;23.378;2022-09-02T01:58:51;94158.28;;;20.08;100.00
6833;BME280;3454;42.654;23.378;2022-09-02T02:01:17;94171.03;;;20.30;100.00
6833;BME280;3454;42.654;23.378;2022-09-02T02:03:42;94159.47;;;20.13;100.00
6833;BME280;3454;42.654;23.378;2022-09-02T02:06:11;94139.03;;;20.11;100.00
6833;BME280;3454;42.654;23.378;2022-09-02T02:08:37;94144.97;;;20.18;100.00
6833;BME280;3454;42.654;23.378;2022-09-02T02:11:05;94148.97;;;20.21;100.00
6833;BME280;3454;42.654;23.378;2022-09-02T02:13:31;94161.06;;;20.27;100.00
6833;BME280;3454;42.654;23.378;2022-09-02T02:15:57;94175.75;;;20.33;100.00
6833;BME280;3454;42.654;23.378;2022-09-02T02:18:22;94174.56;;;20.35;100.00
6833;BME280;3454;42.654;23.378;2022-09-02T02:20:48;94168.81;;;20.27;100.00
6833;BME280;3454;42.654;23.378;2022-09-02T02:23:14;94161.28;;;20.25;100.00
6833;BME280;3454;42.654;23.378;2022-09-02T02:25:39;94167.44;;;20.18;100.00
6833;BME280;3454;42.654;23.378;2022-09-02T02:28:06;94176.94;;;20.30;100.00
6833;BME280;3454;42.654;23.378;2022-09-02T02:30:32;94168.06;;;20.20;100.00
6833;BME280;3454;42.654;23.378;2022-09-02T02:32:57;94183.72;;;20.25;100.00
6833;BME280;3454;42.654;23.378;2022-09-02T02:35:23;94180.97;;;20.20;100.00
6833;BME280;3454;42.654;23.378;2022-09-02T02:37:50;94171.78;;;20.04;100.00
6833;BME280;3454;42.654;23.378;2022-09-02T02:40:20;94167.22;;;20.06;100.00
6833;BME280;3454;42.654;23.378;2022-09-02T02:42:47;94195.03;;;20.30;100.00
6833;BME280;3454;42.654;23.378;2022-09-02T02:45:12;94197.22;;;20.27;100.00
6833;BME280;3454;42.654;23.378;2022-09-02T02:47:39;94192.03;;;20.14;100.00
6833;BME280;3454;42.654;23.378;2022-09-02T02:50:10;94189.47;;;20.14;100.00
6833;BME280;3454;42.654;23.378;2022-09-02T02:52:38;94187.28;;;20.17;100.00
6833;BME280;3454;42.654;23.378;2022-09-02T02:55:06;94170.38;;;20.15;100.00
6833;BME280;3454;42.654;23.378;2022-09-02T02:57:33;94173.56;;;20.17;100.00
6833;BME280;3454;42.654;23.378;2022-09-02T03:00:10;94156.13;;;20.05;100.00
6833;BME280;3454;42.654;23.378;2022-09-02T03:02:37;94154.13;;;19.94;100.00
6833;BME280;3454;42.654;23.378;2022-09-02T03:05:04;94151.94;;;19.78;100.00
6833;BME280;3454;42.654;23.378;2022-09-02T03:07:31;94169.41;;;19.83;100.00
6833;BME280;3454;42.654;23.378;2022-09-02T03:09:56;94166.41;;;19.73;100.00
6833;BME280;3454;42.654;23.378;2022-09-02T03:12:22;94160.69;;;19.77;100.00
6833;BME280;3454;42.654;23.378;2022-09-02T03:14:49;94164.25;;;19.63;100.00
6833;BME280;3454;42.654;23.378;2022-09-02T03:17:16;94166.81;;;19.57;100.00
6833;BME280;3454;42.654;23.378;2022-09-02T03:19:44;94162.19;;;19.46;100.00
6833;BME280;3454;42.654;23.378;2022-09-02T03:22:10;94157.69;;;19.61;100.00
6833;BME280;3454;42.654;23.378;2022-09-02T03:24:38;94167.41;;;19.72;100.00
6833;BME280;3454;42.654;23.378;2022-09-02T03:27:04;94160.47;;;19.59;100.00
6833;BME280;3454;42.654;23.378;2022-09-02T03:29:29;94162.41;;;19.44;100.00
6833;BME280;3454;42.654;23.378;2022-09-02T03:31:58;94164.19;;;19.44;100.00
6833;BME280;3454;42.654;23.378;2022-09-02T03:34:26;94169.00;;;19.73;100.00
6833;BME280;3454;42.654;23.378;2022-09-02T03:36:51;94167.19;;;19.54;100.00
6833;BME280;3454;42.654;23.378;2022-09-02T03:39:17;94174.16;;;19.66;100.00
6833;BME280;3454;42.654;23.378;2022-09-02T03:41:44;94175.34;;;19.77;100.00
6833;BME280;3454;42.654;23.378;2022-09-02T03:44:10;94170.00;;;19.65;100.00
6833;BME280;3454;42.654;23.378;2022-09-02T03:46:37;94175.34;;;19.57;100.00
6833;BME280;3454;42.654;23.378;2022-09-02T03:49:03;94185.03;;;19.62;100.00
6833;BME280;3454;42.654;23.378;2022-09-02T03:51:30;94190.38;;;19.41;100.00
6833;BME280;3454;42.654;23.378;2022-09-02T03:53:57;94190.38;;;19.41;100.00
6833;BME280;3454;42.654;23.378;2022-09-02T03:56:22;94203.47;;;19.39;100.00
6833;BME280;3454;42.654;23.378;2022-09-02T03:58:50;94204.06;;;19.41;100.00
6833;BME280;3454;42.654;23.378;2022-09-02T04:01:19;94207.66;;;19.53;100.00
6833;BME280;3454;42.654;23.378;2022-09-02T04:03:45;94206.66;;;19.54;100.00
6833;BME280;3454;42.654;23.378;2022-09-02T04:06:14;94205.81;;;19.34;100.00
6833;BME280;3454;42.654;23.378;2022-09-02T04:08:41;94218.06;;;19.32;100.00
6833;BME280;3454;42.654;23.378;2022-09-02T04:11:10;94222.34;;;19.53;100.00
6833;BME280;3454;42.654;23.378;2022-09-02T04:13:37;94219.00;;;19.65;100.00
6833;BME280;3454;42.654;23.378;2022-09-02T04:16:11;94219.78;;;19.59;100.00
6833;BME280;3454;42.654;23.378;2022-09-02T04:18:37;94216.97;;;19.41;100.00
6833;BME280;3454;42.654;23.378;2022-09-02T04:21:03;94221.28;;;19.34;100.00
6833;BME280;3454;42.654;23.378;2022-09-02T04:23:30;94220.31;;;19.35;100.00
6833;BME280;3454;42.654;23.378;2022-09-02T04:25:56;94230.81;;;19.40;100.00
6833;BME280;3454;42.654;23.378;2022-09-02T04:28:21;94231.03;;;19.39;100.00
6833;BME280;3454;42.654;23.378;2022-09-02T04:30:47;94232.41;;;19.35;100.00
6833;BME280;3454;42.654;23.378;2022-09-02T04:33:13;94230.81;;;19.40;100.00
6833;BME280;3454;42.654;23.378;2022-09-02T04:35:40;94233.81;;;19.50;100.00
6833;BME280;3454;42.654;23.378;2022-09-02T04:38:06;94230.25;;;19.45;100.00
6833;BME280;3454;42.654;23.378;2022-09-02T04:40:32;94234.25;;;19.60;100.00
6833;BME280;3454;42.654;23.378;2022-09-02T04:42:57;94239.59;;;19.59;100.00
6833;BME280;3454;42.654;23.378;2022-09-02T04:45:23;94236.22;;;19.58;100.00
6833;BME280;3454;42.654;23.378;2022-09-02T04:47:49;94242.38;;;19.57;100.00
6833;BME280;3454;42.654;23.378;2022-09-02T04:50:14;94244.38;;;19.68;100.00
6833;BME280;3454;42.654;23.378;2022-09-02T04:52:39;94232.84;;;19.58;100.00
6833;BME280;3454;42.654;23.378;2022-09-02T04:55:05;94245.56;;;19.66;100.00
6833;BME280;3454;42.654;23.378;2022-09-02T04:57:32;94240.03;;;19.69;100.00
6833;BME280;3454;42.654;23.378;2022-09-02T04:59:57;94244.63;;;19.73;100.00
6833;BME280;3454;42.654;23.378;2022-09-02T05:02:23;94243.41;;;19.69;100.00
6833;BME280;3454;42.654;23.378;2022-09-02T05:04:48;94240.22;;;19.67;100.00
6833;BME280;3454;42.654;23.378;2022-09-02T05:07:14;94245.00;;;19.70;100.00
6833;BME280;3454;42.654;23.378;2022-09-02T05:09:40;94249.56;;;19.75;100.00
6833;BME280;3454;42.654;23.378;2022-09-02T05:12:06;94250.56;;;19.80;100.00
6833;BME280;3454;42.654;23.378;2022-09-02T05:14:32;94251.94;;;19.76;100.00
6833;BME280;3454;42.654;23.378;2022-09-02T05:16:58;94252.78;;;19.83;100.00
6833;BME280;3454;42.654;23.378;2022-09-02T05:19:25;94261.91;;;19.92;100.00
6833;BME280;3454;42.654;23.378;2022-09-02T05:21:51;94259.50;;;19.84;100.00
6833;BME280;3454;42.654;23.378;2022-09-02T05:24:22;94244.78;;;19.72;100.00
6833;BME280;3454;42.654;23.378;2022-09-02T05:26:47;94249.47;;;19.42;100.00
6833;BME280;3454;42.654;23.378;2022-09-02T05:29:15;94252.69;;;19.51;100.00
6833;BME280;3454;42.654;23.378;2022-09-02T05:31:43;94257.91;;;19.77;100.00
6833;BME280;3454;42.654;23.378;2022-09-02T05:34:09;94255.53;;;19.82;100.00
6833;BME280;3454;42.654;23.378;2022-09-02T05:36:35;94255.94;;;19.98;100.00
6833;BME280;3454;42.654;23.378;2022-09-02T05:39:00;94252.13;;;19.68;100.00
6833;BME280;3454;42.654;23.378;2022-09-02T05:41:27;94248.31;;;19.51;100.00
6833;BME280;3454;42.654;23.378;2022-09-02T05:43:57;94249.69;;;19.47;100.00
6833;BME280;3454;42.654;23.378;2022-09-02T05:46:24;94253.56;;;19.77;100.00
6833;BME280;3454;42.654;23.378;2022-09-02T05:48:51;94252.72;;;19.70;100.00
6833;BME280;3454;42.654;23.378;2022-09-02T05:51:40;94251.09;;;19.56;100.00
6833;BME280;3454;42.654;23.378;2022-09-02T05:54:08;94262.09;;;19.84;100.00
6833;BME280;3454;42.654;23.378;2022-09-02T05:56:37;94241.44;;;19.84;100.00
6833;BME280;3454;42.654;23.378;2022-09-02T05:59:02;94248.81;;;20.07;100.00
6833;BME280;3454;42.654;23.378;2022-09-02T06:01:28;94243.09;;;20.25;100.00
6833;BME280;3454;42.654;23.378;2022-09-02T06:03:54;94257.78;;;20.50;100.00
6833;BME280;3454;42.654;23.378;2022-09-02T06:06:21;94254.00;;;20.53;100.00
6833;BME280;3454;42.654;23.378;2022-09-02T06:08:48;94251.22;;;20.35;100.00
6833;BME280;3454;42.654;23.378;2022-09-02T06:11:14;94254.22;;;20.51;100.00
6833;BME280;3454;42.654;23.378;2022-09-02T06:13:41;94270.31;;;20.53;100.00
6833;BME280;3454;42.654;23.378;2022-09-02T06:16:08;94257.94;;;20.88;100.00
6833;BME280;3454;42.654;23.378;2022-09-02T06:18:35;94284.75;;;21.13;100.00
6833;BME280;3454;42.654;23.378;2022-09-02T06:21:02;94284.50;;;21.34;100.00
6833;BME280;3454;42.654;23.378;2022-09-02T06:23:28;94277.03;;;21.57;100.00
6833;BME280;3454;42.654;23.378;2022-09-02T06:25:54;94279.34;;;21.85;100.00
6833;BME280;3454;42.654;23.378;2022-09-02T06:28:20;94303.09;;;22.07;100.00
6833;BME280;3454;42.654;23.378;2022-09-02T06:30:46;94326.75;;;22.17;100.00
6833;BME280;3454;42.654;23.378;2022-09-02T06:33:14;94299.03;;;22.24;100.00
6833;BME280;3454;42.654;23.378;2022-09-02T06:35:42;94326.19;;;22.39;100.00
6833;BME280;3454;42.654;23.378;2022-09-02T06:38:09;94345.63;;;22.55;100.00
6833;BME280;3454;42.654;23.378;2022-09-02T06:40:44;94338.41;;;22.64;100.00
6833;BME280;3454;42.654;23.378;2022-09-02T06:43:09;94368.56;;;22.83;100.00
6833;BME280;3454;42.654;23.378;2022-09-02T06:45:39;94357.28;;;22.71;100.00
6833;BME280;3454;42.654;23.378;2022-09-02T06:48:05;94336.03;;;22.62;100.00
6833;BME280;3454;42.654;23.378;2022-09-02T06:50:32;94339.16;;;22.71;100.00
6833;BME280;3454;42.654;23.378;2022-09-02T06:52:58;94348.66;;;22.77;100.00
6833;BME280;3454;42.654;23.378;2022-09-02T06:55:23;94381.47;;;22.89;100.00
6833;BME280;3454;42.654;23.378;2022-09-02T06:57:48;94336.03;;;22.62;100.00
6833;BME280;3454;42.654;23.378;2022-09-02T07:00:14;94332.88;;;22.60;100.00
6833;BME280;3454;42.654;23.378;2022-09-02T07:02:41;94339.09;;;22.77;100.00
6833;BME280;3454;42.654;23.378;2022-09-02T07:05:07;94354.88;;;22.76;100.00
6833;BME280;3454;42.654;23.378;2022-09-02T07:07:40;94350.50;;;22.76;100.00
6833;BME280;3454;42.654;23.378;2022-09-02T07:10:10;94367.53;;;22.90;100.00
6833;BME280;3454;42.654;23.378;2022-09-02T07:12:37;94391.00;;;22.95;99.72
6833;BME280;3454;42.654;23.378;2022-09-02T07:15:03;94391.06;;;23.13;99.43
6833;BME280;3454;42.654;23.378;2022-09-02T07:17:29;94404.91;;;23.32;98.02
6833;BME280;3454;42.654;23.378;2022-09-02T07:19:55;94415.53;;;23.49;97.13
6833;BME280;3454;42.654;23.378;2022-09-02T07:22:24;94412.66;;;23.57;96.37
6833;BME280;3454;42.654;23.378;2022-09-02T07:24:50;94441.84;;;23.70;95.00
6833;BME280;3454;42.654;23.378;2022-09-02T07:27:15;94441.72;;;23.65;93.88
6833;BME280;3454;42.654;23.378;2022-09-02T07:29:41;94451.25;;;23.71;92.63
6833;BME280;3454;42.654;23.378;2022-09-02T07:32:08;94439.41;;;23.57;92.91
6833;BME280;3454;42.654;23.378;2022-09-02T07:34:34;94409.75;;;23.47;94.65
6833;BME280;3454;42.654;23.378;2022-09-02T07:36:59;94389.34;;;23.50;95.53
6833;BME280;3454;42.654;23.378;2022-09-02T07:39:25;94407.75;;;23.49;95.20
6833;BME280;3454;42.654;23.378;2022-09-02T07:41:51;94402.38;;;23.44;95.25
6833;BME280;3454;42.654;23.378;2022-09-02T07:44:18;94376.38;;;23.50;96.43
6833;BME280;3454;42.654;23.378;2022-09-02T07:46:44;94379.59;;;23.46;96.39
6833;BME280;3454;42.654;23.378;2022-09-02T07:49:11;94391.16;;;23.50;95.84
6833;BME280;3454;42.654;23.378;2022-09-02T07:51:39;94395.47;;;23.56;95.21
6833;BME280;3454;42.654;23.378;2022-09-02T07:54:06;94384.44;;;23.60;95.46
6833;BME280;3454;42.654;23.378;2022-09-02T07:56:32;94396.78;;;23.65;95.04
6833;BME280;3454;42.654;23.378;2022-09-02T07:58:58;94425.06;;;23.73;93.21
6833;BME280;3454;42.654;23.378;2022-09-02T08:01:24;94402.41;;;23.62;95.04
6833;BME280;3454;42.654;23.378;2022-09-02T08:03:49;94406.13;;;23.48;94.83
6833;BME280;3454;42.654;23.378;2022-09-02T08:06:15;94358.09;;;23.20;97.54
6833;BME280;3454;42.654;23.378;2022-09-02T08:08:41;94361.41;;;23.27;98.03
6833;BME280;3454;42.654;23.378;2022-09-02T08:11:07;94383.34;;;23.31;96.87
6833;BME280;3454;42.654;23.378;2022-09-02T08:13:34;94380.47;;;23.40;96.29
6833;BME280;3454;42.654;23.378;2022-09-02T08:16:07;94387.38;;;23.46;96.26
6833;BME280;3454;42.654;23.378;2022-09-02T08:18:33;94400.66;;;23.56;95.54
6833;BME280;3454;42.654;23.378;2022-09-02T08:20:59;94418.34;;;23.65;94.33
6833;BME280;3454;42.654;23.378;2022-09-02T08:23:24;94422.75;;;23.65;94.38
6833;BME280;3454;42.654;23.378;2022-09-02T08:25:50;94431.25;;;23.72;93.70
6833;BME280;3454;42.654;23.378;2022-09-02T08:28:16;94434.44;;;23.74;93.37
6833;BME280;3454;42.654;23.378;2022-09-02T08:30:41;94433.44;;;23.75;93.04
6833;BME280;3454;42.654;23.378;2022-09-02T08:33:06;94432.63;;;23.74;92.51
6833;BME280;3454;42.654;23.378;2022-09-02T08:35:32;94442.38;;;23.79;91.58
6833;BME280;3454;42.654;23.378;2022-09-02T08:37:58;94457.44;;;23.88;91.33
6833;BME280;3454;42.654;23.378;2022-09-02T08:40:30;94466.81;;;23.71;89.95
6833;BME280;3454;42.654;23.378;2022-09-02T08:42:58;94394.34;;;23.02;93.45
6833;BME280;3454;42.654;23.378;2022-09-02T08:45:35;94352.75;;;22.66;96.52
6833;BME280;3454;42.654;23.378;2022-09-02T08:48:10;94356.41;;;22.52;96.68
6833;BME280;3454;42.654;23.378;2022-09-02T08:50:42;94341.16;;;22.37;96.86
6833;BME280;3454;42.654;23.378;2022-09-02T08:55:55;94325.84;;;22.36;98.17
6833;BME280;3454;42.654;23.378;2022-09-02T08:58:24;94327.69;;;22.60;98.40
6833;BME280;3454;42.654;23.378;2022-09-02T09:01:19;94334.66;;;22.84;98.07
6833;BME280;3454;42.654;23.378;2022-09-02T09:12:06;94386.03;;;23.43;94.53
6833;BME280;3454;42.654;23.378;2022-09-02T09:17:24;94390.81;;;23.64;93.85
6833;BME280;3454;42.654;23.378;2022-09-02T09:19:54;94397.09;;;23.75;92.59
6833;BME280;3454;42.654;23.378;2022-09-02T09:22:30;94400.31;;;23.70;92.43
6833;BME280;3454;42.654;23.378;2022-09-02T09:24:57;94391.53;;;23.71;93.13
6833;BME280;3454;42.654;23.378;2022-09-02T09:27:23;94404.81;;;23.81;91.91
6833;BME280;3454;42.654;23.378;2022-09-02T09:29:50;94410.00;;;23.81;91.45
6833;BME280;3454;42.654;23.378;2022-09-02T09:32:24;94392.13;;;23.73;92.42
6833;BME280;3454;42.654;23.378;2022-09-02T09:42:48;94355.19;;;23.35;93.80
6833;BME280;3454;42.654;23.378;2022-09-02T09:45:28;94383.81;;;23.47;92.34
6833;BME280;3454;42.654;23.378;2022-09-02T09:53:25;94403.66;;;23.77;90.58
6833;BME280;3454;42.654;23.378;2022-09-02T09:55:55;94430.25;;;23.91;89.33
6833;BME280;3454;42.654;23.378;2022-09-02T09:58:23;94389.56;;;23.85;91.17
6833;BME280;3454;42.654;23.378;2022-09-02T10:00:51;94387.69;;;23.92;91.94
6833;BME280;3454;42.654;23.378;2022-09-02T10:03:24;94407.91;;;24.08;90.55
6833;BME280;3454;42.654;23.378;2022-09-02T10:05:56;94401.97;;;24.19;91.16
6833;BME280;3454;42.654;23.378;2022-09-02T10:08:25;94407.88;;;24.26;90.63
6833;BME280;3454;42.654;23.378;2022-09-02T10:13:26;94408.75;;;24.02;89.63
6833;BME280;3454;42.654;23.378;2022-09-02T10:16:25;94388.50;;;23.74;90.87
6833;BME280;3454;42.654;23.378;2022-09-02T10:19:01;94367.59;;;23.69;92.71
6833;BME280;3454;42.654;23.378;2022-09-02T10:27:06;94373.41;;;24.01;91.39
6833;BME280;3454;42.654;23.378;2022-09-02T10:37:24;94489.72;;;25.42;84.04
6833;BME280;3454;42.654;23.378;2022-09-02T10:45:23;94475.59;;;25.09;83.52
6833;BME280;3454;42.654;23.378;2022-09-02T10:53:32;94471.28;;;25.67;84.17
6833;BME280;3454;42.654;23.378;2022-09-02T10:56:10;94554.53;;;26.08;79.38
6833;BME280;3454;42.654;23.378;2022-09-02T11:01:29;94566.84;;;27.10;76.51
6833;BME280;3454;42.654;23.378;2022-09-02T11:04:18;94557.16;;;26.94;76.76
6833;BME280;3454;42.654;23.378;2022-09-02T11:06:46;94545.94;;;26.82;76.53
6833;BME280;3454;42.654;23.378;2022-09-02T11:09:26;94531.56;;;26.56;76.65
6833;BME280;3454;42.654;23.378;2022-09-02T11:11:57;94492.28;;;26.35;78.49
6833;BME280;3454;42.654;23.378;2022-09-02T11:31:39;94571.38;;;27.31;72.47
6833;BME280;3454;42.654;23.378;2022-09-02T11:36:41;94559.72;;;27.95;71.85
6833;BME280;3454;42.654;23.378;2022-09-02T11:39:17;94583.47;;;28.65;70.38
6833;BME280;3454;42.654;23.378;2022-09-02T11:42:13;94597.50;;;28.43;67.58
6833;BME280;3454;42.654;23.378;2022-09-02T11:47:31;94553.13;;;28.09;67.96
6833;BME280;3454;42.654;23.378;2022-09-02T11:58:43;94410.06;;;27.17;74.28
6833;BME280;3454;42.654;23.378;2022-09-02T12:03:45;94439.69;;;26.66;73.45
6833;BME280;3454;42.654;23.378;2022-09-02T12:06:16;94407.78;;;26.47;75.20
6833;BME280;3454;42.654;23.378;2022-09-02T12:14:03;94326.44;;;25.77;80.56
6833;BME280;3454;42.654;23.378;2022-09-02T12:21:27;94312.28;;;25.62;81.40
6833;BME280;3454;42.654;23.378;2022-09-02T12:31:45;94328.50;;;26.04;79.90
6833;BME280;3454;42.654;23.378;2022-09-02T12:36:50;94374.13;;;26.46;77.23
6833;BME280;3454;42.654;23.378;2022-09-02T12:50:09;94271.94;;;26.04;81.99
6833;BME280;3454;42.654;23.378;2022-09-02T12:52:41;94279.97;;;26.14;82.16
6833;BME280;3454;42.654;23.378;2022-09-02T12:57:44;94299.84;;;26.32;80.61
6833;BME280;3454;42.654;23.378;2022-09-02T13:00:14;94330.66;;;26.51;78.77
6833;BME280;3454;42.654;23.378;2022-09-02T13:02:56;94354.97;;;26.40;78.01
6833;BME280;3454;42.654;23.378;2022-09-02T13:13:55;94224.31;;;25.64;84.32
6833;BME280;3454;42.654;23.378;2022-09-02T13:19:32;94263.66;;;25.51;83.20
6833;BME280;3454;42.654;23.378;2022-09-02T13:27:38;94119.09;;;24.80;93.21
6833;BME280;3454;42.654;23.378;2022-09-02T13:32:43;94186.59;;;24.75;89.09
6833;BME280;3454;42.654;23.378;2022-09-02T13:35:17;94211.69;;;24.81;87.83
6833;BME280;3454;42.654;23.378;2022-09-02T13:37:53;94213.03;;;24.49;87.64
6833;BME280;3454;42.654;23.378;2022-09-02T13:40:24;94141.22;;;24.02;92.40
6833;BME280;3454;42.654;23.378;2022-09-02T13:42:53;94096.88;;;23.51;97.49
6833;BME280;3454;42.654;23.378;2022-09-02T13:45:21;94113.09;;;23.34;100.00
6833;BME280;3454;42.654;23.378;2022-09-02T13:47:49;94139.25;;;23.33;100.00
6833;BME280;3454;42.654;23.378;2022-09-02T13:50:40;94146.75;;;23.23;100.00
6833;BME280;3454;42.654;23.378;2022-09-02T13:53:07;94145.78;;;22.88;100.00
6833;BME280;3454;42.654;23.378;2022-09-02T13:55:35;94163.41;;;22.61;100.00
6833;BME280;3454;42.654;23.378;2022-09-02T13:58:03;94165.19;;;22.18;100.00
6833;BME280;3454;42.654;23.378;2022-09-02T14:00:34;94190.75;;;21.77;100.00
6833;BME280;3454;42.654;23.378;2022-09-02T14:03:12;94195.75;;;21.34;100.00
6833;BME280;3454;42.654;23.378;2022-09-02T14:05:40;94206.31;;;20.68;100.00
6833;BME280;3454;42.654;23.378;2022-09-02T14:08:11;94197.59;;;20.30;100.00
6833;BME280;3454;42.654;23.378;2022-09-02T14:10:38;94199.38;;;20.36;100.00
6833;BME280;3454;42.654;23.378;2022-09-02T14:13:06;94201.97;;;20.49;100.00
6833;BME280;3454;42.654;23.378;2022-09-02T14:15:34;94216.66;;;20.49;100.00
6833;BME280;3454;42.654;23.378;2022-09-02T14:18:12;94227.19;;;20.47;100.00
6833;BME280;3454;42.654;23.378;2022-09-02T14:20:51;94240.88;;;20.61;100.00
6833;BME280;3454;42.654;23.378;2022-09-02T14:23:18;94247.44;;;20.18;100.00
6833;BME280;3454;42.654;23.378;2022-09-02T14:25:53;94255.75;;;19.93;100.00
6833;BME280;3454;42.654;23.378;2022-09-02T14:28:25;94251.84;;;20.37;100.00
6833;BME280;3454;42.654;23.378;2022-09-02T14:31:07;94248.63;;;20.61;100.00
6833;BME280;3454;42.654;23.378;2022-09-02T14:33:47;94254.75;;;20.92;100.00
6833;BME280;3454;42.654;23.378;2022-09-02T14:43:59;94261.75;;;21.49;100.00
6833;BME280;3454;42.654;23.378;2022-09-02T14:46:31;94255.16;;;21.53;100.00
6833;BME280;3454;42.654;23.378;2022-09-02T14:49:06;94251.50;;;21.67;100.00
6833;BME280;3454;42.654;23.378;2022-09-02T14:51:43;94262.63;;;21.81;100.00
6833;BME280;3454;42.654;23.378;2022-09-02T14:54:09;94263.91;;;21.97;100.00
6833;BME280;3454;42.654;23.378;2022-09-02T14:56:52;94271.19;;;22.13;100.00
6833;BME280;3454;42.654;23.378;2022-09-02T14:59:18;94269.28;;;22.26;100.00
6833;BME280;3454;42.654;23.378;2022-09-02T15:01:52;94268.34;;;22.21;100.00
6833;BME280;3454;42.654;23.378;2022-09-02T15:04:19;94267.47;;;22.33;100.00
6833;BME280;3454;42.654;23.378;2022-09-02T15:06:46;94270.16;;;22.45;100.00
6833;BME280;3454;42.654;23.378;2022-09-02T15:09:12;94278.81;;;22.32;100.00
6833;BME280;3454;42.654;23.378;2022-09-02T15:11:43;94268.03;;;22.35;100.00
6833;BME280;3454;42.654;23.378;2022-09-02T15:14:10;94285.75;;;22.38;100.00
6833;BME280;3454;42.654;23.378;2022-09-02T15:16:37;94279.22;;;22.36;100.00
6833;BME280;3454;42.654;23.378;2022-09-02T15:19:03;94272.78;;;22.14;100.00
6833;BME280;3454;42.654;23.378;2022-09-02T15:21:29;94263.53;;;22.00;100.00
6833;BME280;3454;42.654;23.378;2022-09-02T15:23:54;94277.88;;;21.96;100.00
6833;BME280;3454;42.654;23.378;2022-09-02T15:26:20;94272.16;;;21.81;100.00
6833;BME280;3454;42.654;23.378;2022-09-02T15:28:45;94261.47;;;21.70;100.00
6833;BME280;3454;42.654;23.378;2022-09-02T15:31:11;94262.91;;;21.53;100.00
6833;BME280;3454;42.654;23.378;2022-09-02T15:33:37;94271.25;;;21.55;100.00
6833;BME280;3454;42.654;23.378;2022-09-02T15:36:12;94271.69;;;21.52;100.00
6833;BME280;3454;42.654;23.378;2022-09-02T15:38:38;94273.66;;;21.57;100.00
6833;BME280;3454;42.654;23.378;2022-09-02T15:41:19;94271.03;;;21.63;100.00